createdAt,value
2023-04-14T00:05:50.298Z,6.2
2023-04-14T00:11:50.331Z,6.4
2023-04-14T00:17:50.416Z,6.1
2023-04-14T00:23:50.289Z,6.1
2023-04-14T00:29:50.321Z,6.3
2023-04-14T00:35:50.305Z,6.4
2023-04-14T00:41:50.295Z,6.3
2023-04-14T00:47:50.310Z,6.2
2023-04-14T00:53:50.320Z,6.2
2023-04-14T00:59:50.294Z,6.4
2023-04-14T01:05:50.306Z,6.3
2023-04-14T01:11:50.296Z,6.2
2023-04-14T01:17:50.314Z,6
2023-04-14T01:23:50.312Z,6
2023-04-14T01:29:50.323Z,5.9
2023-04-14T01:35:50.277Z,5.9
2023-04-14T01:41:50.286Z,5.9
2023-04-14T01:47:50.310Z,5.9
2023-04-14T01:53:50.296Z,5.7
2023-04-14T01:59:50.298Z,5.7
2023-04-14T02:05:50.289Z,5.9
2023-04-14T02:11:50.286Z,5.6
2023-04-14T02:17:50.291Z,5.5
2023-04-14T02:23:50.293Z,5.4
2023-04-14T02:29:50.272Z,5.3
2023-04-14T02:35:50.287Z,5.3
2023-04-14T02:41:50.276Z,5.3
2023-04-14T02:47:50.443Z,5.1
2023-04-14T02:53:50.289Z,5.1
2023-04-14T02:59:50.301Z,4.8
2023-04-14T03:05:50.366Z,4.6
2023-04-14T03:11:50.318Z,4.5
2023-04-14T03:18:00.685Z,4.4
2023-04-14T03:23:50.268Z,4.3
2023-04-14T03:29:50.274Z,4.3
2023-04-14T03:35:50.272Z,4.4
2023-04-14T03:41:50.275Z,4.6
2023-04-14T03:47:50.294Z,4.7
2023-04-14T03:53:50.260Z,4.6
2023-04-14T03:59:50.303Z,4.6
2023-04-14T04:05:50.288Z,4.4
2023-04-14T04:11:50.268Z,4.4
2023-04-14T04:17:50.324Z,4.4
2023-04-14T04:23:50.260Z,4.2
2023-04-14T04:29:50.283Z,4.2
2023-04-14T04:35:50.275Z,4.3
2023-04-14T04:41:50.278Z,4.2
2023-04-14T04:47:50.314Z,4.2
2023-04-14T04:59:50.258Z,4.1
2023-04-14T05:05:50.263Z,4
2023-04-14T05:11:50.271Z,3.9
2023-04-14T05:17:50.284Z,3.9
2023-04-14T05:23:50.272Z,4
2023-04-14T05:29:50.259Z,3.9
2023-04-14T05:35:50.270Z,3.9
2023-04-14T05:41:50.316Z,4
2023-04-14T05:47:50.323Z,4.2
2023-04-14T05:53:50.272Z,4.4
2023-04-14T05:59:50.305Z,4.7
2023-04-14T06:05:50.264Z,4.9
2023-04-14T06:11:50.293Z,5.1
2023-04-14T06:17:50.310Z,5.6
2023-04-14T06:23:50.287Z,6.1
2023-04-14T06:29:50.278Z,7
2023-04-14T06:35:50.263Z,11.1
2023-04-14T06:41:50.319Z,12.6
2023-04-14T06:47:50.293Z,14.8
2023-04-14T06:53:50.348Z,17
2023-04-14T06:59:50.276Z,17.4
2023-04-14T07:05:50.318Z,18.7
2023-04-14T07:11:50.275Z,20.1
2023-04-14T07:17:50.364Z,20.8
2023-04-14T07:23:50.246Z,22.6
2023-04-14T07:29:50.285Z,20.1
2023-04-14T07:36:01.276Z,20.4
2023-04-14T07:41:50.308Z,23.9
2023-04-14T07:47:50.298Z,22.4
2023-04-14T07:53:50.281Z,24.2
2023-04-14T07:59:50.275Z,23.6
2023-04-14T08:05:50.363Z,24.1
2023-04-14T08:11:50.287Z,24.4
2023-04-14T08:17:50.404Z,24.9
2023-04-14T08:23:50.320Z,23.6
2023-04-14T08:29:50.271Z,24.3
2023-04-14T08:35:59.926Z,24.9
2023-04-14T08:41:50.286Z,25.2
2023-04-14T08:47:50.407Z,24.7
2023-04-14T08:53:50.340Z,23.4
2023-04-14T08:59:50.739Z,24.3
2023-04-14T09:05:50.311Z,24.4
2023-04-14T09:11:50.331Z,24.4
2023-04-14T09:17:50.339Z,23
2023-04-14T09:23:50.292Z,25.2
2023-04-14T09:29:50.330Z,24.2
2023-04-14T09:35:50.326Z,24.1
2023-04-14T09:41:50.373Z,27.4
2023-04-14T09:47:50.397Z,26.1
2023-04-14T09:53:50.296Z,27.5
2023-04-14T09:59:50.311Z,23.6
2023-04-14T10:05:50.312Z,26
2023-04-14T10:11:50.341Z,25.2
2023-04-14T10:17:50.362Z,22.8
2023-04-14T10:23:50.342Z,24
2023-04-14T10:29:50.321Z,27.3
2023-04-14T10:35:50.453Z,24.1
2023-04-14T10:41:50.382Z,24.5
2023-04-14T10:48:00.638Z,25.8
2023-04-14T10:53:50.341Z,22
2023-04-14T10:59:50.353Z,19.1
2023-04-14T11:06:00.651Z,21.1
2023-04-14T11:11:50.341Z,21.8
2023-04-14T11:17:50.422Z,20.9
2023-04-14T11:23:50.372Z,19.6
2023-04-14T11:29:50.339Z,18.7
2023-04-14T11:35:50.366Z,19.5
2023-04-14T11:41:50.340Z,18.4
2023-04-14T11:47:50.384Z,17.4
2023-04-14T11:53:50.345Z,17.9
2023-04-14T11:59:50.370Z,18.1
2023-04-14T12:05:50.359Z,18.1
2023-04-14T12:11:50.373Z,18.7
2023-04-14T12:17:50.420Z,18.3
2023-04-14T12:23:50.360Z,17.5
2023-04-14T12:29:50.361Z,17.1
2023-04-14T12:35:50.358Z,17.6
2023-04-14T12:41:50.400Z,16.8
2023-04-14T12:47:50.363Z,17.2
2023-04-14T12:53:50.613Z,17
2023-04-14T12:59:50.359Z,17.2
2023-04-14T13:05:50.369Z,17.6
2023-04-14T13:11:50.369Z,17.5
2023-04-14T13:17:50.371Z,17.9
2023-04-14T13:24:50.224Z,17.6
2023-04-14T13:29:50.381Z,17.1
2023-04-14T13:35:50.375Z,16.5
2023-04-14T13:41:50.373Z,17.5
2023-04-14T13:47:50.452Z,17.5
2023-04-14T13:53:50.644Z,18.2
2023-04-14T13:59:50.380Z,18.4
2023-04-14T14:05:50.384Z,18.8
2023-04-14T14:11:50.392Z,18.4
2023-04-14T14:17:50.373Z,18.3
2023-04-14T14:23:50.356Z,18.2
2023-04-14T14:29:50.362Z,17.5
2023-04-14T14:35:50.361Z,17.5
2023-04-14T14:41:50.379Z,17.5
2023-04-14T14:47:50.375Z,17.3
2023-04-14T14:53:50.323Z,17.2
2023-04-14T14:59:50.312Z,17.3
2023-04-14T15:05:50.330Z,17.1
2023-04-14T15:11:50.338Z,17.3
2023-04-14T15:17:50.415Z,16.9
2023-04-14T15:23:50.412Z,16.9
2023-04-14T15:29:50.392Z,16.5
2023-04-14T15:35:50.396Z,16.3
2023-04-14T15:41:50.480Z,16.2
2023-04-14T15:47:50.423Z,15.8
2023-04-14T15:53:50.407Z,16.1
2023-04-14T15:59:50.410Z,15.9
2023-04-14T16:05:50.407Z,16.1
2023-04-14T16:11:50.408Z,16.1
2023-04-14T16:17:50.452Z,15.9
2023-04-14T16:23:50.414Z,15.7
2023-04-14T16:29:50.414Z,15.5
2023-04-14T16:35:50.420Z,15.4
2023-04-14T16:41:50.406Z,15.3
2023-04-14T16:47:50.465Z,15.2
2023-04-14T16:53:50.404Z,15.1
2023-04-14T16:59:50.402Z,15
2023-04-14T17:05:50.378Z,15
2023-04-14T17:11:50.376Z,15
2023-04-14T17:17:50.395Z,15.1
2023-04-14T17:23:50.390Z,15.3
2023-04-14T17:29:50.381Z,15.2
2023-04-14T17:35:50.393Z,15.2
2023-04-14T17:41:50.371Z,15.1
2023-04-14T17:47:50.418Z,15
2023-04-14T17:53:50.392Z,15
2023-04-14T17:59:50.392Z,14.8
2023-04-14T18:05:50.392Z,14.9
2023-04-14T18:11:50.386Z,14.8
2023-04-14T18:17:50.489Z,14.6
2023-04-14T18:29:50.396Z,14.1
2023-04-14T18:35:50.439Z,13.9
2023-04-14T18:41:50.386Z,13.9
2023-04-14T18:47:50.430Z,13.9
2023-04-14T18:53:50.414Z,13.7
2023-04-14T18:59:50.404Z,13.5
2023-04-14T19:05:50.403Z,13.1
2023-04-14T19:11:50.403Z,12.9
2023-04-14T19:17:50.462Z,12.4
2023-04-14T19:23:50.390Z,12.2
2023-04-14T19:29:50.391Z,12.1
2023-04-14T19:35:50.405Z,12.2
2023-04-14T19:41:50.387Z,12.2
2023-04-14T19:47:50.435Z,12.2
2023-04-14T19:53:50.393Z,12.2
2023-04-14T19:59:50.398Z,12
2023-04-14T20:05:50.396Z,11.5
2023-04-14T20:11:50.501Z,11.4
2023-04-14T20:17:50.416Z,11.3
2023-04-14T20:23:50.411Z,11.5
2023-04-14T20:29:50.443Z,11.5
2023-04-14T20:35:50.417Z,11.4
2023-04-14T20:41:50.409Z,11.1
2023-04-14T20:47:50.460Z,10.8
2023-04-14T20:53:50.416Z,10.6
2023-04-14T20:59:50.449Z,10.5
2023-04-14T21:05:50.413Z,10.4
2023-04-14T21:12:14.349Z,10.1
2023-04-14T21:17:50.487Z,10
2023-04-14T21:23:50.395Z,9.8
2023-04-14T21:29:50.406Z,9.7
2023-04-14T21:35:50.407Z,9.7
2023-04-14T21:41:50.396Z,9.7
2023-04-14T21:47:50.423Z,9.6
2023-04-14T21:53:50.405Z,9.6
2023-04-14T21:59:50.404Z,9.5
2023-04-14T22:05:50.407Z,9.6
2023-04-14T22:11:50.478Z,9.5
2023-04-14T22:17:50.486Z,9.4
2023-04-14T22:23:50.388Z,9.5
2023-04-14T22:29:50.439Z,9.4
2023-04-14T22:35:50.481Z,9.4
2023-04-14T22:41:50.484Z,9.5
2023-04-14T22:47:50.429Z,9.4
2023-04-14T22:53:50.394Z,9.3
2023-04-14T22:59:50.413Z,9.2
2023-04-14T23:05:50.408Z,9
2023-04-14T23:11:50.398Z,8.9
2023-04-14T23:17:50.473Z,8.8
2023-04-14T23:23:50.400Z,8.7
2023-04-14T23:29:50.405Z,8.6
2023-04-14T23:35:50.410Z,8.5
2023-04-14T23:41:50.418Z,8.5
2023-04-14T23:47:50.443Z,8.3
2023-04-14T23:53:50.399Z,8
2023-04-14T23:59:50.385Z,7.6
